createdAt,value
2023-09-01T00:02:04.447Z,10.05
2023-09-01T00:04:40.968Z,12.52
2023-09-01T00:07:08.282Z,13.65
2023-09-01T00:09:35.972Z,19.52
2023-09-01T00:12:03.639Z,10.75
2023-09-01T00:14:30.300Z,13.40
2023-09-01T00:16:57.754Z,15.73
2023-09-01T00:19:24.730Z,16.90
2023-09-01T00:21:52.052Z,18.40
2023-09-01T00:24:18.717Z,12.60
2023-09-01T00:26:46.205Z,21.38
2023-09-01T00:29:12.941Z,16.73
2023-09-01T00:31:40.333Z,17.42
2023-09-01T00:34:07.074Z,20.30
2023-09-01T00:36:34.089Z,17.25
2023-09-01T00:39:01.462Z,20.13
2023-09-01T00:41:28.607Z,17.42
2023-09-01T00:43:55.332Z,16.60
2023-09-01T00:46:22.376Z,14.63
2023-09-01T00:48:49.973Z,19.23
2023-09-01T00:51:17.824Z,16.30
2023-09-01T00:53:45.252Z,17.20
2023-09-01T00:56:13.385Z,16.30
2023-09-01T00:58:41.626Z,16.27
2023-09-01T01:01:08.305Z,16.73
2023-09-01T01:03:36.326Z,17.23
2023-09-01T01:06:21.434Z,20.33
2023-09-01T01:09:20.193Z,20.95
2023-09-01T01:12:07.980Z,16.15
2023-09-01T01:14:52.536Z,15.80
2023-09-01T01:17:21.010Z,19.83
2023-09-01T01:20:15.529Z,16.92
2023-09-01T01:22:53.345Z,18.02
2023-09-01T01:25:21.310Z,20.60
2023-09-01T01:27:48.780Z,12.07
2023-09-01T01:30:16.337Z,16.17
2023-09-01T01:32:44.794Z,12.50
2023-09-01T01:35:30.270Z,19.95
2023-09-01T01:38:15.183Z,16.13
2023-09-01T01:40:46.521Z,15.45
2023-09-01T01:43:16.895Z,18.67
2023-09-01T01:45:45.628Z,12.10
2023-09-01T01:48:13.261Z,22.33
2023-09-01T01:50:41.859Z,17.00
2023-09-01T01:53:09.732Z,21.52
2023-09-01T01:55:36.551Z,16.10
2023-09-01T01:58:06.536Z,18.42
2023-09-01T02:00:33.966Z,21.27
2023-09-01T02:03:01.412Z,22.02
2023-09-01T02:05:28.912Z,17.83
2023-09-01T02:07:55.632Z,9.25
2023-09-01T02:10:23.062Z,21.63
2023-09-01T02:12:50.303Z,14.25
2023-09-01T02:15:17.754Z,21.58
2023-09-01T02:17:44.883Z,13.73
2023-09-01T02:20:21.288Z,21.20
2023-09-01T02:22:51.771Z,18.80
2023-09-01T02:25:19.310Z,15.18
2023-09-01T02:27:46.005Z,17.88
2023-09-01T02:30:14.509Z,12.57
2023-09-01T02:32:42.236Z,17.50
2023-09-01T02:35:10.608Z,20.70
2023-09-01T02:37:38.049Z,20.75
2023-09-01T02:40:12.584Z,16.88
2023-09-01T02:42:40.724Z,13.13
2023-09-01T02:45:10.483Z,17.77
2023-09-01T02:47:37.265Z,16.70
2023-09-01T02:50:06.151Z,20.38
2023-09-01T02:52:33.112Z,17.38
2023-09-01T02:55:01.107Z,16.67
2023-09-01T02:57:27.912Z,13.18
2023-09-01T02:59:55.382Z,19.83
2023-09-01T03:02:22.879Z,20.35
2023-09-01T03:04:51.443Z,18.63
2023-09-01T03:07:18.491Z,15.18
2023-09-01T03:09:45.976Z,16.35
2023-09-01T03:12:12.720Z,15.68
2023-09-01T03:14:39.745Z,19.02
2023-09-01T03:17:07.760Z,11.40
2023-09-01T03:19:34.616Z,14.90
2023-09-01T03:22:02.157Z,17.48
2023-09-01T03:24:29.404Z,17.90
2023-09-01T03:26:56.842Z,13.80
2023-09-01T03:29:23.602Z,14.50
2023-09-01T03:31:51.115Z,18.27
2023-09-01T03:34:20.562Z,14.32
2023-09-01T03:36:48.058Z,17.83
2023-09-01T03:39:16.497Z,16.92
2023-09-01T03:41:43.890Z,16.17
2023-09-01T03:44:10.569Z,18.77
2023-09-01T03:46:38.421Z,14.75
2023-09-01T03:49:05.241Z,15.43
2023-09-01T03:51:32.308Z,15.35
2023-09-01T03:53:59.007Z,15.98
2023-09-01T03:56:26.358Z,16.38
2023-09-01T03:58:53.050Z,15.95
2023-09-01T04:01:20.069Z,19.88
2023-09-01T04:03:49.254Z,18.80
2023-09-01T04:06:16.051Z,13.73
2023-09-01T04:08:44.687Z,12.90
2023-09-01T04:11:11.440Z,12.63
2023-09-01T04:13:39.251Z,20.58
2023-09-01T04:16:06.187Z,18.98
2023-09-01T04:18:33.850Z,19.90
2023-09-01T04:21:01.143Z,16.25
2023-09-01T04:23:29.165Z,15.30
2023-09-01T04:25:56.553Z,19.48
2023-09-01T04:28:26.848Z,19.50
2023-09-01T04:30:54.981Z,15.90
2023-09-01T04:33:22.331Z,12.38
2023-09-01T04:36:05.087Z,18.50
2023-09-01T04:38:33.690Z,14.45
2023-09-01T04:41:02.004Z,16.02
2023-09-01T04:43:31.724Z,14.05
2023-09-01T04:45:59.552Z,14.57
2023-09-01T04:48:29.010Z,16.13
2023-09-01T04:50:55.951Z,18.80
2023-09-01T04:53:24.666Z,17.45
2023-09-01T04:55:52.745Z,15.80
2023-09-01T04:58:20.161Z,17.08
2023-09-01T05:00:46.980Z,19.00
2023-09-01T05:03:14.809Z,15.77
2023-09-01T05:05:41.604Z,16.30
2023-09-01T05:08:09.149Z,20.52
2023-09-01T05:10:35.893Z,17.60
2023-09-01T05:13:03.271Z,21.48
2023-09-01T05:15:31.561Z,17.08
2023-09-01T05:17:59.432Z,16.75
2023-09-01T05:20:26.323Z,16.63
2023-09-01T05:22:54.367Z,16.13
2023-09-01T05:25:21.244Z,13.60
2023-09-01T05:27:48.703Z,19.38
2023-09-01T05:30:15.419Z,17.02
2023-09-01T05:32:43.940Z,15.95
2023-09-01T05:35:10.762Z,17.20
2023-09-01T05:37:38.120Z,18.10
2023-09-01T05:40:05.358Z,18.17
2023-09-01T05:42:32.384Z,15.45
2023-09-01T05:45:00.326Z,21.25
2023-09-01T05:47:28.836Z,17.35
2023-09-01T05:49:56.523Z,19.42
2023-09-01T05:52:23.278Z,17.55
2023-09-01T05:54:50.686Z,25.35
2023-09-01T05:57:18.426Z,22.88
2023-09-01T05:59:45.746Z,22.55
2023-09-01T06:02:12.481Z,19.48
2023-09-01T06:04:40.014Z,19.10
2023-09-01T06:07:07.057Z,23.15
2023-09-01T06:09:36.326Z,23.25
2023-09-01T06:12:03.392Z,19.27
2023-09-01T06:14:30.829Z,19.63
2023-09-01T06:16:57.489Z,19.73
2023-09-01T06:19:25.252Z,20.95
2023-09-01T06:21:52.025Z,16.17
2023-09-01T06:24:19.744Z,19.70
2023-09-01T06:26:46.460Z,15.75
2023-09-01T06:29:13.822Z,13.85
2023-09-01T06:31:40.589Z,18.40
2023-09-01T06:34:07.911Z,19.63
2023-09-01T06:36:34.698Z,16.23
2023-09-01T06:39:02.188Z,20.13
2023-09-01T06:41:29.029Z,18.67
2023-09-01T06:43:56.012Z,18.27
2023-09-01T06:46:23.441Z,19.55
2023-09-01T06:48:50.265Z,16.73
2023-09-01T06:51:17.753Z,17.45
2023-09-01T06:53:44.636Z,21.30
2023-09-01T06:56:12.038Z,17.33
2023-09-01T06:58:38.689Z,17.95
2023-09-01T07:01:10.262Z,16.10
2023-09-01T07:03:37.058Z,14.32
2023-09-01T07:06:05.693Z,15.52
2023-09-01T07:08:32.436Z,15.40
2023-09-01T07:11:07.713Z,17.15
2023-09-01T07:13:34.424Z,16.58
2023-09-01T07:16:01.825Z,15.65
2023-09-01T07:18:30.079Z,14.65
2023-09-01T07:21:01.925Z,19.63
2023-09-01T07:23:29.178Z,19.33
2023-09-01T07:25:56.834Z,18.00
2023-09-01T07:28:24.011Z,16.00
2023-09-01T07:30:51.729Z,14.27
2023-09-01T07:33:18.924Z,13.30
2023-09-01T07:35:47.677Z,16.48
2023-09-01T07:38:16.032Z,15.38
2023-09-01T07:40:44.026Z,19.52
2023-09-01T07:43:11.852Z,22.42
2023-09-01T07:45:40.627Z,18.30
2023-09-01T07:48:20.675Z,14.98
2023-09-01T07:50:50.425Z,13.30
2023-09-01T07:53:17.775Z,16.35
2023-09-01T07:55:44.461Z,11.95
2023-09-01T07:58:11.847Z,13.95
2023-09-01T08:00:39.982Z,10.82
2023-09-01T08:03:12.469Z,15.52
2023-09-01T08:05:40.409Z,15.27
2023-09-01T08:08:08.527Z,12.23
2023-09-01T08:10:35.818Z,15.25
2023-09-01T08:13:03.626Z,18.63
2023-09-01T08:15:30.317Z,16.60
2023-09-01T08:17:57.854Z,14.05
2023-09-01T08:20:24.664Z,19.30
2023-09-01T08:22:52.108Z,15.88
2023-09-01T08:25:19.069Z,14.70
2023-09-01T08:27:46.358Z,18.48
2023-09-01T08:30:14.325Z,13.70
2023-09-01T08:32:42.617Z,17.45
2023-09-01T08:35:10.741Z,18.83
2023-09-01T08:37:38.863Z,16.85
2023-09-01T08:40:07.168Z,16.17
2023-09-01T08:42:35.215Z,17.42
2023-09-01T08:45:04.218Z,20.42
2023-09-01T08:47:37.463Z,17.60
2023-09-01T08:52:33.854Z,15.82
2023-09-01T08:55:00.659Z,14.70
2023-09-01T08:57:28.323Z,23.33
2023-09-01T08:59:55.092Z,22.33
2023-09-01T09:02:22.669Z,22.83
2023-09-01T09:04:49.606Z,22.05
2023-09-01T09:07:19.578Z,21.25
2023-09-01T09:09:59.028Z,27.25
2023-09-01T09:12:38.176Z,30.70
2023-09-01T09:15:06.541Z,22.83
2023-09-01T09:17:41.647Z,29.23
2023-09-01T09:20:10.109Z,24.75
2023-09-01T09:23:00.891Z,25.83
2023-09-01T09:25:32.346Z,26.33
2023-09-01T09:28:01.184Z,26.60
2023-09-01T09:30:28.975Z,27.65
2023-09-01T09:33:03.848Z,28.60
2023-09-01T09:35:30.911Z,28.67
2023-09-01T09:38:00.012Z,34.95
2023-09-01T09:40:27.582Z,34.55
2023-09-01T09:42:59.909Z,31.15
2023-09-01T09:45:34.206Z,29.67
2023-09-01T09:48:08.174Z,35.28
2023-09-01T09:50:36.101Z,33.63
2023-09-01T09:53:05.505Z,29.95
2023-09-01T09:55:34.528Z,36.72
2023-09-01T09:58:07.054Z,33.03
2023-09-01T10:00:54.112Z,28.98
2023-09-01T10:03:24.990Z,26.02
2023-09-01T10:05:52.699Z,22.55
2023-09-01T10:08:22.028Z,21.17
2023-09-01T10:10:50.233Z,24.58
2023-09-01T10:13:17.933Z,18.15
2023-09-01T10:15:46.195Z,17.17
2023-09-01T10:18:13.376Z,19.15
2023-09-01T10:20:44.650Z,18.00
2023-09-01T10:23:12.800Z,15.25
2023-09-01T10:25:41.134Z,21.17
2023-09-01T10:28:19.991Z,16.02
2023-09-01T10:30:47.987Z,15.23
2023-09-01T10:33:27.434Z,16.42
2023-09-01T10:35:56.218Z,15.93
2023-09-01T10:38:37.074Z,15.18
2023-09-01T10:41:04.322Z,14.70
2023-09-01T10:43:38.525Z,14.38
2023-09-01T10:46:14.449Z,15.07
2023-09-01T10:49:01.650Z,13.73
2023-09-01T10:51:38.391Z,14.10
2023-09-01T10:54:17.760Z,13.75
2023-09-01T10:56:58.826Z,12.77
2023-09-01T10:59:37.180Z,15.27
2023-09-01T11:02:29.411Z,17.85
2023-09-01T11:04:57.658Z,13.38
2023-09-01T11:07:24.374Z,15.60
2023-09-01T11:09:53.139Z,13.40
2023-09-01T11:12:26.879Z,11.13
2023-09-01T11:14:59.382Z,12.73
2023-09-01T11:17:33.954Z,12.52
2023-09-01T11:20:00.698Z,9.30
2023-09-01T11:22:27.610Z,15.95
2023-09-01T11:24:54.837Z,10.38
2023-09-01T11:27:21.516Z,10.10
2023-09-01T11:29:52.064Z,9.48
2023-09-01T11:32:28.776Z,9.63
2023-09-01T11:34:56.160Z,8.48
2023-09-01T11:37:35.759Z,7.82
2023-09-01T11:40:06.454Z,8.48
2023-09-01T11:42:34.582Z,11.48
2023-09-01T11:45:04.580Z,8.65
2023-09-01T11:47:31.825Z,5.82
2023-09-01T11:49:58.718Z,5.70
2023-09-01T11:52:26.205Z,5.97
2023-09-01T11:54:55.944Z,5.63
2023-09-01T11:57:23.017Z,5.68
2023-09-01T11:59:50.586Z,5.13
2023-09-01T12:02:18.799Z,4.90
2023-09-01T12:04:49.972Z,4.22
2023-09-01T12:07:32.509Z,7.65
2023-09-01T12:09:59.200Z,2.30
2023-09-01T12:12:38.351Z,4.10
2023-09-01T12:15:05.619Z,3.65
2023-09-01T12:17:33.200Z,2.50
2023-09-01T12:20:02.112Z,3.35
2023-09-01T12:22:29.653Z,3.60
2023-09-01T12:24:59.498Z,3.10
2023-09-01T12:27:27.038Z,4.47
2023-09-01T12:29:55.045Z,4.30
2023-09-01T12:32:22.423Z,7.75
2023-09-01T12:34:49.594Z,5.70
2023-09-01T12:37:17.427Z,3.80
2023-09-01T12:39:44.075Z,4.72
2023-09-01T12:42:11.528Z,6.25
2023-09-01T12:44:38.255Z,6.60
2023-09-01T12:47:08.621Z,5.05
2023-09-01T12:49:37.809Z,7.50
2023-09-01T12:52:05.677Z,8.45
2023-09-01T12:54:32.405Z,3.50
2023-09-01T12:56:59.783Z,5.78
2023-09-01T12:59:26.503Z,5.47
2023-09-01T13:01:53.778Z,5.85
2023-09-01T13:04:21.061Z,7.38
2023-09-01T13:06:49.000Z,8.63
2023-09-01T13:09:16.306Z,6.05
2023-09-01T13:11:42.991Z,5.78
2023-09-01T13:14:10.275Z,3.30
2023-09-01T13:16:37.042Z,6.72
2023-09-01T13:19:04.393Z,4.55
2023-09-01T13:21:31.043Z,2.97
2023-09-01T13:23:58.015Z,5.68
2023-09-01T13:26:24.676Z,2.55
2023-09-01T13:28:51.655Z,2.70
2023-09-01T13:31:18.385Z,1.83
2023-09-01T13:33:45.754Z,3.92
2023-09-01T13:36:12.593Z,4.65
2023-09-01T13:38:39.680Z,2.38
2023-09-01T13:41:08.365Z,3.25
2023-09-01T13:43:36.312Z,2.47
2023-09-01T13:46:23.617Z,1.20
2023-09-01T13:48:59.134Z,2.22
2023-09-01T13:51:27.280Z,4.18
2023-09-01T13:53:56.106Z,2.47
2023-09-01T13:56:23.120Z,2.15
2023-09-01T13:58:50.666Z,5.95
2023-09-01T14:01:17.433Z,16.02
2023-09-01T14:03:47.452Z,12.73
2023-09-01T14:06:14.786Z,11.75
2023-09-01T14:08:42.224Z,4.20
2023-09-01T14:11:09.540Z,1.98
2023-09-01T14:13:36.249Z,1.02
2023-09-01T14:16:03.106Z,2.05
2023-09-01T14:18:30.007Z,1.08
2023-09-01T14:20:58.534Z,3.20
2023-09-01T14:23:26.356Z,3.13
2023-09-01T14:25:54.329Z,2.35
2023-09-01T14:28:21.747Z,6.60
2023-09-01T14:30:49.579Z,3.53
2023-09-01T14:33:19.080Z,4.97
2023-09-01T14:35:53.673Z,1.77
2023-09-01T14:38:20.642Z,2.55
2023-09-01T14:40:48.032Z,3.58
2023-09-01T14:43:15.224Z,5.07
2023-09-01T14:45:43.500Z,1.55
2023-09-01T14:48:10.241Z,1.67
2023-09-01T14:50:37.693Z,3.25
2023-09-01T14:53:04.494Z,13.88
2023-09-01T14:55:33.070Z,5.15
2023-09-01T14:57:59.806Z,3.95
2023-09-01T15:00:27.222Z,8.48
2023-09-01T15:02:54.302Z,7.15
2023-09-01T15:05:21.056Z,3.72
2023-09-01T15:07:47.736Z,4.63
2023-09-01T15:10:15.346Z,7.65
2023-09-01T15:12:45.296Z,13.82
2023-09-01T15:15:13.060Z,18.13
2023-09-01T15:17:39.835Z,9.88
2023-09-01T15:20:07.538Z,14.63
2023-09-01T15:22:35.051Z,3.75
2023-09-01T15:25:01.874Z,9.25
2023-09-01T15:27:29.397Z,9.35
2023-09-01T15:29:56.088Z,9.25
2023-09-01T15:32:23.521Z,11.48
2023-09-01T15:34:57.472Z,10.20
2023-09-01T15:37:36.921Z,3.72
2023-09-01T15:40:04.082Z,3.47
2023-09-01T15:42:31.561Z,11.07
2023-09-01T15:44:58.232Z,8.82
2023-09-01T15:47:25.624Z,3.22
2023-09-01T15:49:52.327Z,5.78
2023-09-01T15:52:19.315Z,2.47
2023-09-01T15:54:46.020Z,6.35
2023-09-01T15:57:13.750Z,6.40
2023-09-01T15:59:40.522Z,3.10
2023-09-01T16:02:07.934Z,4.68
2023-09-01T16:04:34.702Z,3.88
2023-09-01T16:07:02.159Z,3.97
2023-09-01T16:09:28.914Z,3.08
2023-09-01T16:11:56.470Z,3.85
2023-09-01T16:14:23.208Z,7.13
2023-09-01T16:16:54.724Z,3.42
2023-09-01T16:19:22.349Z,4.20
2023-09-01T16:21:51.728Z,2.42
2023-09-01T16:24:18.672Z,4.38
2023-09-01T16:26:46.005Z,4.32
2023-09-01T16:29:12.796Z,4.78
2023-09-01T16:31:40.124Z,2.97
2023-09-01T16:34:09.976Z,4.18
2023-09-01T16:36:36.748Z,5.55
2023-09-01T16:39:06.668Z,3.38
2023-09-01T16:41:33.316Z,13.60
2023-09-01T16:44:00.749Z,18.05
2023-09-01T16:46:28.088Z,46.20
2023-09-01T16:48:55.442Z,25.08
2023-09-01T16:51:22.174Z,22.17
2023-09-01T16:53:49.142Z,13.98
2023-09-01T16:56:15.958Z,15.07
2023-09-01T16:58:43.256Z,14.80
2023-09-01T17:01:10.065Z,8.13
2023-09-01T17:03:37.550Z,6.30
2023-09-01T17:06:04.488Z,7.13
2023-09-01T17:08:31.804Z,5.20
2023-09-01T17:10:58.599Z,4.80
2023-09-01T17:13:25.955Z,5.22
2023-09-01T17:15:52.761Z,7.05
2023-09-01T17:18:20.099Z,7.13
2023-09-01T17:20:57.334Z,10.30
2023-09-01T17:23:29.216Z,6.25
2023-09-01T17:25:56.011Z,6.53
2023-09-01T17:28:23.520Z,5.43
2023-09-01T17:30:50.265Z,2.92
2023-09-01T17:33:18.117Z,2.75
2023-09-01T17:35:45.484Z,4.57
2023-09-01T17:38:12.516Z,3.83
2023-09-01T17:40:42.454Z,3.40
2023-09-01T17:43:10.192Z,4.32
2023-09-01T17:45:36.858Z,4.63
2023-09-01T17:48:06.680Z,4.80
2023-09-01T17:50:33.656Z,3.60
2023-09-01T17:53:01.047Z,4.85
2023-09-01T17:55:28.110Z,29.10
2023-09-01T17:57:54.908Z,17.92
2023-09-01T18:00:22.050Z,12.52
2023-09-01T18:02:49.634Z,13.80
2023-09-01T18:05:17.015Z,12.18
2023-09-01T18:07:43.983Z,13.32
2023-09-01T18:10:11.273Z,8.50
2023-09-01T18:12:38.038Z,7.70
2023-09-01T18:15:05.717Z,5.15
2023-09-01T18:17:32.665Z,7.30
2023-09-01T18:20:02.375Z,5.30
2023-09-01T18:22:29.668Z,9.38
2023-09-01T18:24:57.329Z,5.05
2023-09-01T18:27:30.894Z,6.72
2023-09-01T18:30:02.305Z,7.47
2023-09-01T18:32:29.494Z,6.40
2023-09-01T18:34:57.048Z,8.50
2023-09-01T18:37:23.752Z,6.03
2023-09-01T18:39:50.478Z,7.32
2023-09-01T18:42:38.528Z,5.82
2023-09-01T18:45:12.397Z,15.15
2023-09-01T18:47:39.356Z,6.53
2023-09-01T18:50:09.192Z,7.80
2023-09-01T18:52:37.292Z,5.70
2023-09-01T18:55:04.534Z,6.55
2023-09-01T18:57:31.753Z,7.38
2023-09-01T19:00:03.873Z,7.43
2023-09-01T19:02:38.731Z,8.48
2023-09-01T19:05:27.763Z,8.60
2023-09-01T19:07:55.013Z,9.38
2023-09-01T19:10:23.551Z,8.20
2023-09-01T19:12:52.910Z,8.75
2023-09-01T19:15:21.186Z,8.65
2023-09-01T19:17:48.804Z,9.60
2023-09-01T19:20:29.367Z,8.15
2023-09-01T19:22:56.126Z,10.00
2023-09-01T19:25:22.820Z,7.63
2023-09-01T19:28:05.619Z,7.75
2023-09-01T19:30:36.793Z,9.73
2023-09-01T19:33:03.885Z,9.05
2023-09-01T19:35:30.665Z,9.27
2023-09-01T19:37:57.734Z,10.10
2023-09-01T19:40:24.881Z,8.77
2023-09-01T19:43:02.974Z,9.68
2023-09-01T19:45:30.498Z,10.43
2023-09-01T19:47:58.073Z,11.63
2023-09-01T19:50:29.806Z,9.90
2023-09-01T19:52:57.399Z,9.80
2023-09-01T19:55:26.957Z,12.00
2023-09-01T19:57:55.255Z,10.55
2023-09-01T20:00:27.221Z,9.45
2023-09-01T20:02:58.879Z,9.63
2023-09-01T20:05:26.484Z,10.90
2023-09-01T20:07:54.972Z,8.73
2023-09-01T20:10:33.346Z,10.20
2023-09-01T20:13:01.949Z,14.30
2023-09-01T20:15:29.961Z,13.57
2023-09-01T20:17:57.375Z,12.30
2023-09-01T20:20:26.122Z,11.25
2023-09-01T20:22:54.727Z,14.13
2023-09-01T20:25:23.454Z,15.02
2023-09-01T20:27:54.743Z,13.82
2023-09-01T20:30:23.745Z,14.98
2023-09-01T20:32:55.289Z,16.83
2023-09-01T20:35:22.776Z,12.93
2023-09-01T20:37:50.778Z,16.80
2023-09-01T20:40:17.693Z,14.05
2023-09-01T20:42:44.901Z,13.88
2023-09-01T20:45:12.810Z,12.75
2023-09-01T20:47:40.320Z,15.85
2023-09-01T20:50:10.731Z,11.02
2023-09-01T20:52:40.481Z,11.82
2023-09-01T20:55:09.517Z,15.90
2023-09-01T20:57:43.972Z,13.50
2023-09-01T21:00:16.056Z,14.65
2023-09-01T21:02:44.775Z,11.18
2023-09-01T21:05:12.035Z,12.77
2023-09-01T21:07:40.467Z,11.65
2023-09-01T21:10:08.897Z,13.45
2023-09-01T21:12:36.466Z,14.88
2023-09-01T21:15:04.484Z,16.23
2023-09-01T21:17:31.234Z,14.73
2023-09-01T21:20:00.067Z,13.98
2023-09-01T21:22:27.762Z,13.15
2023-09-01T21:24:56.620Z,16.45
2023-09-01T21:27:23.346Z,17.08
2023-09-01T21:29:56.130Z,15.68
2023-09-01T21:32:23.108Z,15.88
2023-09-01T21:34:54.402Z,15.07
2023-09-01T21:37:23.220Z,15.10
2023-09-01T21:39:50.511Z,14.50
2023-09-01T21:42:17.171Z,17.38
2023-09-01T21:44:44.598Z,17.15
2023-09-01T21:47:11.250Z,15.85
2023-09-01T21:49:38.704Z,19.77
2023-09-01T21:52:05.938Z,15.68
2023-09-01T21:54:33.265Z,14.10
2023-09-01T21:57:05.434Z,18.65
2023-09-01T21:59:33.556Z,16.33
2023-09-01T22:02:00.603Z,15.93
2023-09-01T22:04:28.063Z,13.45
2023-09-01T22:06:54.749Z,14.68
2023-09-01T22:09:22.786Z,15.05
2023-09-01T22:11:49.428Z,18.00
2023-09-01T22:14:16.722Z,17.02
2023-09-01T22:16:43.471Z,12.65
2023-09-01T22:19:11.386Z,16.52
2023-09-01T22:21:38.927Z,16.85
2023-09-01T22:24:08.925Z,20.80
2023-09-01T22:26:37.088Z,15.30
2023-09-01T22:29:05.228Z,13.57
2023-09-01T22:31:31.916Z,19.60
2023-09-01T22:33:59.993Z,16.50
2023-09-01T22:36:26.828Z,18.30
2023-09-01T22:38:54.244Z,20.30
2023-09-01T22:41:23.056Z,20.15
2023-09-01T22:43:50.273Z,17.42
2023-09-01T22:46:17.678Z,23.77
2023-09-01T22:48:44.600Z,19.80
2023-09-01T22:51:11.891Z,18.77
2023-09-01T22:53:38.622Z,20.80
2023-09-01T22:56:06.015Z,27.13
2023-09-01T22:58:33.669Z,19.60
2023-09-01T23:01:04.795Z,18.33
2023-09-01T23:03:32.117Z,22.50
2023-09-01T23:05:59.830Z,26.05
2023-09-01T23:08:26.499Z,20.33
2023-09-01T23:10:53.822Z,23.55
2023-09-01T23:13:20.497Z,20.60
2023-09-01T23:15:47.805Z,22.05
2023-09-01T23:18:14.561Z,26.38
2023-09-01T23:20:41.871Z,22.42
2023-09-01T23:23:08.544Z,22.38
2023-09-01T23:25:36.917Z,17.90
2023-09-01T23:28:04.098Z,20.90
2023-09-01T23:30:32.003Z,26.73
2023-09-01T23:32:58.698Z,23.60
2023-09-01T23:35:26.279Z,23.90
2023-09-01T23:37:52.959Z,23.17
2023-09-01T23:40:20.437Z,26.08
2023-09-01T23:42:47.233Z,32.13
2023-09-01T23:45:14.691Z,31.73
2023-09-01T23:47:41.442Z,31.38
2023-09-01T23:50:11.037Z,27.98
2023-09-01T23:52:38.410Z,32.72
2023-09-01T23:55:06.134Z,34.63
2023-09-01T23:57:32.866Z,33.00
